Time;durP1;ratioP1;P1;durP2;ratioP2;P2;SDS_P1;SDS_P2;PMS_P1;PMS_P2;Temp;Humidity;BMP_temperature;BMP_pressure;BME280_temperature;BME280_humidity;BME280_pressure;Samples;Min_cycle;Max_cycle;Signal;HPM_P1;HPM_P2
2023/01/24 00:01:15;;;;;;;68.23;35.73;;;;;;;-0.34;100.00;97548.75;5032252;27;102871;-67
2023/01/24 00:03:45;;;;;;;60.77;34.00;;;;;;;-0.36;100.00;97550.72;5030698;28;105696;-67
2023/01/24 00:06:12;;;;;;;64.13;32.73;;;;;;;-0.48;100.00;97557.16;5035719;27;101874;-67
2023/01/24 00:08:39;;;;;;;57.37;33.20;;;;;;;-0.39;100.00;97556.22;5031373;27;101732;-67
2023/01/24 00:11:09;;;;;;;70.77;33.73;;;;;;;-0.43;100.00;97557.53;5030454;28;102110;-67
2023/01/24 00:13:37;;;;;;;68.20;35.03;;;;;;;-0.42;100.00;97564.41;5030965;28;105122;-67
2023/01/24 00:16:08;;;;;;;63.00;33.60;;;;;;;-0.36;100.00;97556.75;5030398;28;105053;-67
2023/01/24 00:18:39;;;;;;;71.70;37.83;;;;;;;-0.24;100.00;97561.72;5031232;28;101863;-67
2023/01/24 00:21:12;;;;;;;63.97;34.87;;;;;;;-0.24;100.00;97564.34;5030325;28;105013;-67
2023/01/24 00:23:39;;;;;;;69.00;35.73;;;;;;;-0.22;100.00;97564.03;5029921;28;104678;-67
2023/01/24 00:26:07;;;;;;;69.03;35.63;;;;;;;-0.06;100.00;97573.72;5034377;28;101819;-67
2023/01/24 00:28:35;;;;;;;66.43;34.33;;;;;;;0.00;100.00;97568.72;5029324;28;105593;-67
2023/01/24 00:31:02;;;;;;;66.07;35.17;;;;;;;0.01;100.00;97570.34;5031632;27;101783;-67
2023/01/24 00:33:31;;;;;;;68.93;34.17;;;;;;;0.01;100.00;97570.34;5030486;28;105426;-67
2023/01/24 00:35:59;;;;;;;66.57;34.03;;;;;;;0.01;100.00;97572.16;5030103;27;104184;-67
2023/01/24 00:38:29;;;;;;;69.37;34.50;;;;;;;0.08;100.00;97571.38;5030278;28;101920;-67
2023/01/24 00:40:58;;;;;;;65.07;32.53;;;;;;;0.16;100.00;97574.00;5030330;28;105241;-67
2023/01/24 00:43:29;;;;;;;65.80;33.77;;;;;;;0.18;100.00;97566.00;5029909;28;105261;-67
2023/01/24 00:45:57;;;;;;;60.53;33.13;;;;;;;0.18;100.00;97573.84;5029906;27;102481;-67
2023/01/24 00:48:24;;;;;;;60.10;32.13;;;;;;;0.14;100.00;97572.53;5032975;28;105272;-67
2023/01/24 00:50:51;;;;;;;61.70;32.30;;;;;;;0.16;100.00;97575.78;5030115;28;101866;-67
2023/01/24 00:53:19;;;;;;;61.30;31.67;;;;;;;0.13;100.00;97571.69;5029547;28;104887;-67
2023/01/24 00:55:48;;;;;;;63.07;34.00;;;;;;;0.12;100.00;97575.28;5029823;28;105423;-67
2023/01/24 00:58:16;;;;;;;56.63;32.07;;;;;;;0.19;100.00;97580.72;5029608;28;101903;-67
2023/01/24 01:00:43;;;;;;;61.23;31.90;;;;;;;0.23;100.00;97584.66;5030075;28;104846;-67
2023/01/24 01:03:15;;;;;;;66.83;34.47;;;;;;;0.18;100.00;97590.34;5029593;28;104899;-67
2023/01/24 01:05:43;;;;;;;64.07;33.93;;;;;;;0.31;100.00;97589.91;5031304;28;101751;-67
2023/01/24 01:08:11;;;;;;;71.60;35.00;;;;;;;0.29;100.00;97589.28;5030229;28;105237;-67
2023/01/24 01:10:39;;;;;;;68.70;34.50;;;;;;;0.24;100.00;97587.09;5032658;28;106006;-67
2023/01/24 01:13:08;;;;;;;64.80;33.57;;;;;;;0.20;100.00;97593.66;5029928;28;105300;-67
2023/01/24 01:15:37;;;;;;;62.33;32.23;;;;;;;0.31;100.00;97596.00;5029274;28;102050;-67
2023/01/24 01:18:05;;;;;;;61.37;33.60;;;;;;;0.24;100.00;97599.38;5029823;28;101856;-67
2023/01/24 01:20:32;;;;;;;59.37;33.03;;;;;;;0.21;100.00;97592.66;5029640;28;104814;-67
2023/01/24 01:22:59;;;;;;;61.10;32.40;;;;;;;0.25;100.00;97591.38;5028459;28;105482;-67
2023/01/24 01:25:26;;;;;;;56.87;31.20;;;;;;;0.18;100.00;97598.19;5029533;27;102133;-67
2023/01/24 01:27:56;;;;;;;59.77;31.77;;;;;;;0.07;100.00;97592.44;5029672;28;104984;-67
2023/01/24 01:30:25;;;;;;;57.77;32.20;;;;;;;0.12;100.00;97596.22;5028954;28;105191;-67
2023/01/24 01:32:56;;;;;;;62.30;32.93;;;;;;;0.15;100.00;97603.75;5032989;28;101927;-67
2023/01/24 01:35:25;;;;;;;60.13;32.60;;;;;;;0.25;100.00;97593.16;5028897;28;105744;-67
2023/01/24 01:37:52;;;;;;;54.30;31.23;;;;;;;0.28;100.00;97595.50;5027724;28;101929;-67
2023/01/24 01:40:19;;;;;;;59.57;33.87;;;;;;;0.31;100.00;97592.53;5029225;28;104853;-67
2023/01/24 01:42:54;;;;;;;60.03;33.10;;;;;;;0.29;100.00;97597.91;5029285;28;105343;-67
2023/01/24 01:45:42;;;;;;;60.27;32.60;;;;;;;0.34;100.00;97594.84;5029018;28;101950;-67
2023/01/24 01:48:22;;;;;;;64.67;34.83;;;;;;;0.36;100.00;97585.88;5029112;28;105561;-67
2023/01/24 01:50:57;;;;;;;60.37;32.33;;;;;;;0.40;100.00;97586.38;5028540;28;105410;-67
2023/01/24 01:53:28;;;;;;;64.63;32.93;;;;;;;0.38;100.00;97589.13;5031044;27;101716;-67
2023/01/24 01:56:00;;;;;;;58.40;33.37;;;;;;;0.21;100.00;97594.44;5031543;28;103704;-67
2023/01/24 01:58:28;;;;;;;60.83;31.70;;;;;;;0.20;100.00;97592.81;5029731;27;102043;-67
2023/01/24 02:00:59;;;;;;;62.07;34.67;;;;;;;0.37;100.00;97595.34;5029003;28;103620;-67
2023/01/24 02:03:41;;;;;;;60.53;35.53;;;;;;;0.30;100.00;97593.53;5028432;28;105611;-67
2023/01/24 02:06:35;;;;;;;60.53;34.70;;;;;;;0.19;100.00;97599.88;5029251;28;101880;-67
2023/01/24 02:09:05;;;;;;;54.27;32.30;;;;;;;-0.04;100.00;97590.09;5028736;28;104768;-67
2023/01/24 02:11:41;;;;;;;59.07;31.83;;;;;;;0.09;100.00;97587.88;5028609;28;104986;-67
2023/01/24 02:16:57;;;;;;;60.93;32.47;;;;;;;0.12;100.00;97598.03;5028942;28;105162;-67
2023/01/24 02:19:51;;;;;;;58.83;33.43;;;;;;;0.22;100.00;97596.13;5031216;28;105259;-67
2023/01/24 02:22:24;;;;;;;59.63;32.37;;;;;;;0.23;100.00;97598.56;5023137;28;104806;-67
2023/01/24 02:25:02;;;;;;;56.93;32.80;;;;;;;0.30;100.00;97601.38;5027950;28;105035;-67
2023/01/24 02:27:31;;;;;;;57.50;32.23;;;;;;;0.40;100.00;97602.06;5028433;28;102121;-67
2023/01/24 02:29:58;;;;;;;55.63;32.67;;;;;;;0.26;100.00;97602.66;5028594;28;104817;-67
2023/01/24 02:32:26;;;;;;;66.43;35.23;;;;;;;0.28;100.00;97592.88;5028007;28;105751;-67
2023/01/24 02:34:54;;;;;;;55.40;33.60;;;;;;;0.26;100.00;97592.19;5029072;28;101917;-67
2023/01/24 02:37:27;;;;;;;58.67;33.03;;;;;;;0.23;100.00;97592.53;5028868;28;104791;-67
2023/01/24 02:40:01;;;;;;;59.90;31.27;;;;;;;0.00;100.00;97592.25;5031549;28;105581;-67
2023/01/24 02:42:38;;;;;;;56.67;29.93;;;;;;;-0.13;100.00;97585.78;5028862;28;105702;-67
2023/01/24 02:45:10;;;;;;;55.00;31.37;;;;;;;-0.17;100.00;97587.06;5027999;28;105103;-68
2023/01/24 02:47:46;;;;;;;59.30;33.33;;;;;;;-0.02;100.00;97582.91;5028753;28;101921;-68
2023/01/24 02:50:15;;;;;;;58.97;32.03;;;;;;;0.06;100.00;97589.00;5028553;28;105195;-67
2023/01/24 02:55:29;;;;;;;62.97;33.07;;;;;;;0.09;100.00;97590.47;5027105;28;102139;-67
2023/01/24 02:58:06;;;;;;;66.07;33.87;;;;;;;0.20;100.00;97590.19;5028361;28;105382;-67
2023/01/24 03:00:36;;;;;;;54.77;32.23;;;;;;;0.20;100.00;97585.81;5027591;28;105189;-67
2023/01/24 03:03:03;;;;;;;60.10;32.37;;;;;;;0.16;100.00;97583.63;5031696;28;102255;-67
2023/01/24 03:05:39;;;;;;;60.20;33.20;;;;;;;0.18;100.00;97586.94;5027705;27;101800;-68
2023/01/24 03:08:20;;;;;;;61.43;34.17;;;;;;;0.15;100.00;97592.47;5028046;28;101948;-67
2023/01/24 03:10:51;;;;;;;58.47;33.10;;;;;;;0.11;100.00;97601.63;5030648;28;105390;-67
2023/01/24 03:35:23;;;;;;;59.33;31.07;;;;;;;0.03;100.00;97614.63;5031048;28;105302;-67
2023/01/24 03:40:38;;;;;;;55.13;28.83;;;;;;;-0.13;100.00;97599.69;5031413;28;105737;-67
2023/01/24 03:43:08;;;;;;;57.10;28.87;;;;;;;-0.03;100.00;97600.41;5030970;28;105598;-67
2023/01/24 03:45:40;;;;;;;52.90;28.87;;;;;;;-0.02;100.00;97612.50;5031395;28;101763;-67
2023/01/24 03:48:26;;;;;;;50.57;28.63;;;;;;;-0.11;100.00;97602.13;5033238;27;102858;-67
2023/01/24 03:53:39;;;;;;;45.47;27.10;;;;;;;-0.09;100.00;97606.22;5031265;28;105548;-67
2023/01/24 03:56:10;;;;;;;47.90;27.73;;;;;;;0.02;100.00;97603.34;5030378;28;105858;-67
2023/01/24 03:58:43;;;;;;;46.57;25.83;;;;;;;-0.07;100.00;97606.09;5031343;28;102056;-67
2023/01/24 04:01:14;;;;;;;43.60;25.43;;;;;;;-0.09;100.00;97611.47;5030646;28;102012;-67
2023/01/24 04:04:07;;;;;;;46.60;25.87;;;;;;;-0.09;100.00;97603.63;5028976;28;102421;-67
2023/01/24 04:06:35;;;;;;;41.47;24.57;;;;;;;-0.09;100.00;97603.63;5030978;28;101904;-67
2023/01/24 04:09:06;;;;;;;45.43;23.97;;;;;;;-0.18;100.00;97601.13;5030994;28;105385;-67
2023/01/24 04:11:34;;;;;;;38.47;24.23;;;;;;;-0.10;100.00;97595.94;5030146;28;105253;-67
2023/01/24 04:14:08;;;;;;;43.23;24.50;;;;;;;-0.01;100.00;97603.69;5034051;28;101923;-67
2023/01/24 04:16:41;;;;;;;43.30;24.27;;;;;;;-0.08;100.00;97602.66;5029614;28;104685;-67
2023/01/24 04:19:18;;;;;;;38.43;23.27;;;;;;;-0.15;100.00;97604.25;5029344;28;101997;-67
2023/01/24 04:21:45;;;;;;;40.03;23.87;;;;;;;-0.06;100.00;97605.09;5029763;28;104826;-67
2023/01/24 04:24:12;;;;;;;37.17;22.53;;;;;;;0.00;100.00;97607.13;5029621;28;105391;-67
2023/01/24 04:26:45;;;;;;;36.70;22.93;;;;;;;0.00;100.00;97612.34;5030717;28;102203;-67
2023/01/24 04:29:18;;;;;;;36.80;23.40;;;;;;;0.09;100.00;97612.22;5030521;28;105256;-67
2023/01/24 04:31:51;;;;;;;35.87;22.63;;;;;;;0.00;100.00;97607.94;5029717;28;105962;-67
2023/01/24 04:34:30;;;;;;;38.57;23.37;;;;;;;0.08;100.00;97607.16;5030049;28;101723;-67
2023/01/24 04:36:57;;;;;;;42.93;24.10;;;;;;;0.08;100.00;97617.63;5033036;28;104786;-67
2023/01/24 04:39:24;;;;;;;42.50;25.00;;;;;;;0.07;100.00;97611.56;5029898;28;101921;-67
2023/01/24 04:42:01;;;;;;;43.93;25.20;;;;;;;0.02;100.00;97607.78;5029521;28;101872;-67
2023/01/24 04:44:29;;;;;;;42.03;24.37;;;;;;;0.06;100.00;97615.16;5029368;28;105154;-67
2023/01/24 04:47:00;;;;;;;44.70;26.23;;;;;;;0.05;100.00;97617.91;5030579;28;101923;-67
2023/01/24 04:49:27;;;;;;;46.93;26.70;;;;;;;0.03;100.00;97609.41;5030359;28;105345;-67
2023/01/24 04:51:55;;;;;;;42.63;24.03;;;;;;;0.02;100.00;97611.19;5029359;28;102804;-67
2023/01/24 04:54:28;;;;;;;42.93;26.87;;;;;;;0.02;100.00;97615.63;5029570;28;102184;-68
2023/01/24 04:56:55;;;;;;;47.53;26.43;;;;;;;0.07;100.00;97623.81;5033482;28;104943;-68
2023/01/24 04:59:22;;;;;;;42.17;25.20;;;;;;;0.15;100.00;97616.00;5030085;28;102102;-68
2023/01/24 05:01:50;;;;;;;41.57;24.23;;;;;;;0.18;100.00;97623.56;5029825;28;105222;-68
2023/01/24 05:04:43;;;;;;;40.30;23.90;;;;;;;0.10;100.00;97620.88;5029314;28;105562;-68
2023/01/24 05:07:11;;;;;;;39.60;25.47;;;;;;;0.06;100.00;97624.81;5029799;28;101911;-68
2023/01/24 05:09:41;;;;;;;43.57;25.30;;;;;;;0.12;100.00;97624.19;5029766;28;105763;-68
2023/01/24 05:12:10;;;;;;;40.73;23.93;;;;;;;0.16;100.00;97634.16;5029395;28;105242;-68
2023/01/24 05:14:37;;;;;;;40.67;23.23;;;;;;;0.23;100.00;97629.13;5029815;28;101989;-67
2023/01/24 05:17:04;;;;;;;45.77;24.90;;;;;;;0.20;100.00;97629.44;5029271;28;105173;-67
2023/01/24 05:19:34;;;;;;;39.27;23.27;;;;;;;0.22;100.00;97635.34;5031609;28;105159;-68
2023/01/24 05:22:03;;;;;;;36.90;24.33;;;;;;;0.20;100.00;97635.50;5029266;27;104396;-67
2023/01/24 05:24:36;;;;;;;41.67;24.23;;;;;;;0.19;100.00;97638.25;5030570;28;103084;-67
2023/01/24 05:27:03;;;;;;;39.40;23.70;;;;;;;-0.05;100.00;97631.09;5029269;28;101807;-67
2023/01/24 05:29:32;;;;;;;38.90;24.90;;;;;;;-0.03;100.00;97633.56;5029302;28;104011;-67
2023/01/24 05:32:02;;;;;;;37.70;23.37;;;;;;;-0.06;100.00;97626.03;5028502;28;106090;-68
2023/01/24 05:34:30;;;;;;;38.30;24.73;;;;;;;0.04;100.00;97630.19;5029024;28;101859;-67
2023/01/24 05:36:57;;;;;;;32.20;21.70;;;;;;;-0.15;100.00;97633.00;5028738;28;103390;-67
2023/01/24 05:39:26;;;;;;;28.67;19.90;;;;;;;-0.25;100.00;97636.69;5028224;28;104005;-68
2023/01/24 05:41:53;;;;;;;27.37;20.07;;;;;;;-0.04;100.00;97639.78;5032564;28;102081;-67
2023/01/24 05:44:22;;;;;;;27.57;19.10;;;;;;;-0.19;100.00;97643.91;5028199;28;104801;-67
2023/01/24 05:46:50;;;;;;;24.80;17.87;;;;;;;-0.26;100.00;97648.94;5028728;28;102022;-67
2023/01/24 05:49:21;;;;;;;26.70;18.20;;;;;;;-0.18;100.00;97642.94;5028637;28;104942;-67
2023/01/24 05:51:50;;;;;;;27.77;17.27;;;;;;;-0.09;100.00;97649.88;5027885;28;105217;-67
2023/01/24 05:54:36;;;;;;;25.67;18.03;;;;;;;-0.06;100.00;97658.22;5026969;28;102052;-67
2023/01/24 05:57:08;;;;;;;26.27;17.80;;;;;;;-0.03;100.00;97651.88;5028639;28;105411;-67
2023/01/24 05:59:55;;;;;;;23.80;16.93;;;;;;;-0.01;100.00;97657.75;4986930;28;102428;-67
2023/01/24 06:02:22;;;;;;;26.80;17.63;;;;;;;-0.02;100.00;97656.13;5028704;28;101981;-67
2023/01/24 06:04:50;;;;;;;26.07;17.47;;;;;;;0.03;100.00;97654.69;5031135;28;104920;-68
2023/01/24 06:07:17;;;;;;;25.30;17.30;;;;;;;0.00;100.00;97656.81;5028350;28;101952;-68
2023/01/24 06:09:46;;;;;;;25.33;17.47;;;;;;;-0.02;100.00;97663.97;5028358;28;105345;-67
2023/01/24 06:12:13;;;;;;;30.70;17.47;;;;;;;0.02;100.00;97668.72;5027750;28;105253;-68
2023/01/24 06:14:44;;;;;;;24.37;16.97;;;;;;;-0.03;100.00;97668.38;5028127;28;101759;-68
2023/01/24 06:17:10;;;;;;;26.43;17.43;;;;;;;-0.20;100.00;97671.84;5027792;28;104813;-67
2023/01/24 06:19:38;;;;;;;24.17;16.80;;;;;;;-0.17;100.00;97666.31;5026713;28;105027;-67
2023/01/24 06:22:18;;;;;;;23.17;16.17;;;;;;;-0.43;100.00;97669.88;5027984;28;101797;-67
2023/01/24 06:24:48;;;;;;;23.20;16.03;;;;;;;-0.37;100.00;97674.50;5028890;28;104968;-67
2023/01/24 06:27:25;;;;;;;21.23;15.83;;;;;;;-0.47;100.00;97674.56;5031027;28;104866;-68
2023/01/24 06:29:53;;;;;;;21.93;15.60;;;;;;;-0.39;100.00;97679.03;5027822;28;105282;-67
2023/01/24 06:32:31;;;;;;;22.43;15.67;;;;;;;-0.39;100.00;97686.88;5027448;28;105063;-67
2023/01/24 06:35:12;;;;;;;21.90;15.70;;;;;;;-0.52;100.00;97689.06;5027501;28;101892;-67
2023/01/24 06:37:46;;;;;;;23.53;16.20;;;;;;;-0.36;100.00;97686.59;5029603;27;102645;-68
2023/01/24 06:40:33;;;;;;;20.20;14.83;;;;;;;-0.52;100.00;97686.47;5028864;27;103666;-67
2023/01/24 06:43:01;;;;;;;20.87;15.00;;;;;;;-0.53;100.00;97684.00;4949966;28;102115;-67
2023/01/24 06:45:28;;;;;;;21.30;14.97;;;;;;;-0.25;100.00;97686.34;4933945;28;105899;-67
2023/01/24 06:47:57;;;;;;;21.50;15.50;;;;;;;-0.50;100.00;97702.00;4949794;28;105826;-67
2023/01/24 06:50:25;;;;;;;21.40;15.83;;;;;;;-0.55;100.00;97691.97;4953498;28;101827;-67
2023/01/24 06:52:53;;;;;;;21.00;15.13;;;;;;;-0.57;100.00;97690.47;4949521;28;105630;-67
2023/01/24 06:55:21;;;;;;;20.87;15.17;;;;;;;-0.59;100.00;97695.03;4950231;28;102157;-67
2023/01/24 06:58:03;;;;;;;23.00;16.30;;;;;;;-0.53;100.00;97691.81;4949910;28;104898;-67
2023/01/24 07:00:31;;;;;;;22.33;15.13;;;;;;;-0.59;100.00;97695.03;4949691;28;104592;-67
2023/01/24 07:02:59;;;;;;;23.43;15.17;;;;;;;-0.69;100.00;97695.13;4950199;28;102018;-67
2023/01/24 07:05:26;;;;;;;22.23;15.60;;;;;;;-0.69;100.00;97700.34;4950172;28;105503;-67
2023/01/24 07:07:53;;;;;;;22.53;15.07;;;;;;;-0.48;100.00;97698.25;4949507;28;105596;-67
2023/01/24 07:10:22;;;;;;;23.23;14.80;;;;;;;-0.53;100.00;97699.66;4953666;28;101908;-67
2023/01/24 07:12:50;;;;;;;20.40;14.77;;;;;;;-0.39;100.00;97706.97;4949180;28;104292;-67
2023/01/24 07:15:17;;;;;;;22.03;15.27;;;;;;;-0.34;100.00;97707.34;4950300;28;101956;-67
2023/01/24 07:17:45;;;;;;;20.63;15.20;;;;;;;-0.30;100.00;97701.66;4949744;28;105197;-67
2023/01/24 07:20:13;;;;;;;19.20;13.73;;;;;;;-0.33;100.00;97715.03;4985095;28;105176;-67
2023/01/24 07:22:42;;;;;;;22.10;15.93;;;;;;;-0.41;100.00;97714.97;5027457;28;102176;-67
2023/01/24 07:25:14;;;;;;;19.60;14.30;;;;;;;-0.37;100.00;97714.50;5029073;27;102526;-68
2023/01/24 07:27:44;;;;;;;23.50;15.73;;;;;;;-0.25;100.00;97717.72;5010157;28;105141;-68
2023/01/24 07:30:12;;;;;;;20.07;15.27;;;;;;;-0.33;100.00;97712.41;5027377;28;101930;-67
2023/01/24 07:32:39;;;;;;;20.07;15.40;;;;;;;-0.47;100.00;97712.97;5031409;27;102565;-68
2023/01/24 07:35:08;;;;;;;23.93;18.27;;;;;;;-0.50;100.00;97720.28;5027476;28;101962;-67
2023/01/24 07:37:36;;;;;;;25.80;17.13;;;;;;;-0.27;100.00;97717.84;5027914;28;105321;-67
2023/01/24 07:40:04;;;;;;;25.37;17.33;;;;;;;-0.38;100.00;97719.06;5028251;27;102605;-67
2023/01/24 07:42:31;;;;;;;20.33;15.03;;;;;;;-0.38;100.00;97725.13;5027106;28;102073;-68
2023/01/24 07:44:59;;;;;;;24.70;17.13;;;;;;;-0.43;100.00;97722.16;5027144;28;103861;-67
2023/01/24 07:47:27;;;;;;;23.20;16.13;;;;;;;-0.22;100.00;97730.47;5026872;28;105405;-68
2023/01/24 07:49:54;;;;;;;25.93;17.40;;;;;;;-0.16;100.00;97722.84;5028968;27;102242;-68
2023/01/24 07:52:21;;;;;;;21.40;15.97;;;;;;;-0.12;100.00;97718.13;5026938;28;105734;-68
2023/01/24 07:54:48;;;;;;;21.67;15.90;;;;;;;-0.21;100.00;97724.28;5030284;27;105122;-67
2023/01/24 07:57:15;;;;;;;21.97;16.47;;;;;;;-0.05;100.00;97733.06;5030564;27;102600;-67
2023/01/24 07:59:42;;;;;;;25.40;17.07;;;;;;;-0.05;100.00;97732.25;5029754;28;105935;-68
2023/01/24 08:02:12;;;;;;;22.07;16.07;;;;;;;-0.10;100.00;97737.94;5030131;28;102377;-68
2023/01/24 08:04:39;;;;;;;24.97;16.60;;;;;;;-0.26;100.00;97743.03;5030746;28;104909;-68
2023/01/24 08:07:17;;;;;;;23.67;16.60;;;;;;;-0.17;100.00;97744.75;5029853;28;105012;-68
2023/01/24 08:09:45;;;;;;;23.43;16.13;;;;;;;-0.26;100.00;97744.84;5031464;27;101785;-68
2023/01/24 08:12:12;;;;;;;24.57;17.87;;;;;;;-0.24;100.00;97750.72;5030038;28;105302;-67
2023/01/24 08:14:39;;;;;;;26.77;17.17;;;;;;;-0.11;100.00;97751.97;5029862;28;105043;-67
2023/01/24 08:17:05;;;;;;;21.37;15.30;;;;;;;-0.18;100.00;97757.16;5033633;28;101895;-67
2023/01/24 08:19:35;;;;;;;22.90;16.00;;;;;;;-0.16;100.00;97754.22;5028885;28;105165;-67
2023/01/24 08:22:02;;;;;;;23.10;16.13;;;;;;;-0.26;100.00;97760.50;5031218;27;101802;-67
2023/01/24 08:24:29;;;;;;;19.97;15.27;;;;;;;-0.45;100.00;97760.66;5031276;27;102572;-68
2023/01/24 08:26:57;;;;;;;23.43;15.50;;;;;;;-0.43;100.00;97750.06;5029561;28;105442;-67
2023/01/24 08:29:24;;;;;;;23.43;15.73;;;;;;;-0.19;100.00;97751.09;5030057;28;101879;-67
2023/01/24 08:31:51;;;;;;;19.30;14.60;;;;;;;-0.21;100.00;97753.03;5029759;28;103534;-67
2023/01/24 08:34:18;;;;;;;21.67;15.60;;;;;;;-0.08;100.00;97763.94;5031132;27;102732;-67
2023/01/24 08:36:47;;;;;;;24.40;16.63;;;;;;;0.05;100.00;97761.72;5013290;28;101891;-67
2023/01/24 08:39:14;;;;;;;24.83;17.43;;;;;;;0.14;100.00;97763.44;5032597;28;105213;-67
2023/01/24 08:41:45;;;;;;;22.93;16.53;;;;;;;0.13;100.00;97767.03;5029900;28;102111;-67
2023/01/24 08:44:13;;;;;;;24.07;16.13;;;;;;;0.14;100.00;97764.28;5031209;28;102451;-67
2023/01/24 08:46:40;;;;;;;24.83;17.00;;;;;;;-0.08;100.00;97764.75;5029372;28;105328;-68
2023/01/24 08:49:07;;;;;;;23.90;16.47;;;;;;;0.03;100.00;97774.16;5031021;27;101916;-68
2023/01/24 08:51:35;;;;;;;22.97;15.43;;;;;;;0.05;100.00;97777.41;5029890;28;104235;-67
2023/01/24 08:54:05;;;;;;;22.40;15.67;;;;;;;0.27;100.00;97776.94;5028893;27;103187;-67
2023/01/24 08:56:32;;;;;;;25.33;16.67;;;;;;;0.46;100.00;97772.34;5031007;27;101656;-67
2023/01/24 08:58:59;;;;;;;23.83;16.90;;;;;;;0.47;100.00;97770.53;5030856;27;102332;-67
2023/01/24 09:01:26;;;;;;;23.33;16.00;;;;;;;0.30;100.00;97774.88;5032027;27;102087;-67
2023/01/24 09:03:54;;;;;;;24.17;16.93;;;;;;;0.53;100.00;97775.16;5029257;28;105894;-67
2023/01/24 09:06:21;;;;;;;23.93;16.37;;;;;;;0.39;100.00;97776.53;5030661;28;103105;-67
2023/01/24 09:08:48;;;;;;;25.07;17.50;;;;;;;0.29;100.00;97777.63;5028517;28;101971;-67
2023/01/24 09:11:17;;;;;;;25.40;15.80;;;;;;;0.26;100.00;97778.75;5030816;27;101705;-67
2023/01/24 09:13:44;;;;;;;21.57;15.63;;;;;;;0.42;100.00;97785.88;5028772;28;105376;-67
2023/01/24 09:16:11;;;;;;;24.67;16.50;;;;;;;0.52;100.00;97781.38;5030664;27;102058;-67
2023/01/24 09:18:38;;;;;;;23.67;17.47;;;;;;;0.61;100.00;97783.88;5030101;27;102495;-67
2023/01/24 09:21:05;;;;;;;24.63;16.90;;;;;;;0.51;100.00;97784.97;5032346;28;103067;-67
2023/01/24 09:23:32;;;;;;;24.40;16.93;;;;;;;0.55;100.00;97788.94;5030382;27;102330;-67
2023/01/24 09:25:59;;;;;;;28.93;18.17;;;;;;;0.57;100.00;97786.97;5029892;27;102466;-67
2023/01/24 09:28:28;;;;;;;21.40;16.10;;;;;;;0.55;100.00;97788.94;5028861;28;101878;-67
2023/01/24 09:30:55;;;;;;;29.17;19.47;;;;;;;0.52;100.00;97790.06;5028572;28;104828;-67
2023/01/24 09:33:22;;;;;;;26.47;17.23;;;;;;;0.64;100.00;97796.66;5028393;28;105109;-67
2023/01/24 09:35:54;;;;;;;21.70;15.63;;;;;;;0.30;100.00;97797.56;5030501;27;101814;-67
2023/01/24 09:38:22;;;;;;;24.20;16.60;;;;;;;0.49;100.00;97799.97;5028984;28;102272;-67
2023/01/24 09:40:55;;;;;;;21.80;15.73;;;;;;;0.65;100.00;97806.16;5028340;28;105288;-67
2023/01/24 09:43:47;;;;;;;23.97;15.73;;;;;;;0.73;100.00;97798.34;5031956;28;101779;-67
2023/01/24 09:46:21;;;;;;;24.90;16.17;;;;;;;0.79;100.00;97800.38;5025267;27;104320;-67
2023/01/24 09:48:51;;;;;;;27.07;18.40;;;;;;;1.04;100.00;97801.31;5030222;27;101661;-67
2023/01/24 09:51:24;;;;;;;24.93;17.47;;;;;;;1.01;100.00;97802.44;5028679;28;103619;-67
2023/01/24 09:53:54;;;;;;;22.57;15.60;;;;;;;1.03;100.00;97804.88;5029550;27;102782;-67
2023/01/24 09:56:30;;;;;;;22.57;15.33;;;;;;;0.84;100.00;97794.66;5030835;27;102167;-67
2023/01/24 09:59:11;;;;;;;24.93;18.90;;;;;;;0.84;100.00;97790.25;5028821;28;103859;-67
2023/01/24 10:01:42;;;;;;;27.93;21.27;;;;;;;0.85;100.00;97801.53;5029464;27;102447;-68
2023/01/24 10:04:19;;;;;;;29.87;18.83;;;;;;;0.85;100.00;97791.03;5028644;28;101899;-68
2023/01/24 10:07:05;;;;;;;23.90;17.87;;;;;;;1.05;100.00;97802.94;5032518;27;102536;-68
2023/01/24 10:09:44;;;;;;;28.03;19.43;;;;;;;1.13;100.00;97789.84;5028127;28;101808;-67
2023/01/24 10:12:23;;;;;;;21.27;15.37;;;;;;;0.77;100.00;97796.25;5028384;28;105326;-67
2023/01/24 10:15:04;;;;;;;23.20;17.60;;;;;;;0.83;100.00;97799.03;5029821;28;102784;-67
2023/01/24 10:17:50;;;;;;;23.60;17.70;;;;;;;1.02;100.00;97792.75;5030107;27;101745;-68
2023/01/24 10:20:51;;;;;;;26.43;18.97;;;;;;;1.01;100.00;97793.75;5028541;27;102350;-67
2023/01/24 10:23:21;;;;;;;32.53;19.63;;;;;;;0.69;100.00;97790.97;4984363;28;104446;-67
2023/01/24 10:25:54;;;;;;;27.07;18.27;;;;;;;0.70;100.00;97782.13;5028656;28;101783;-67
2023/01/24 10:28:25;;;;;;;30.87;20.13;;;;;;;0.93;100.00;97786.66;5029942;27;102566;-67
2023/01/24 10:31:03;;;;;;;28.77;17.57;;;;;;;0.85;100.00;97785.81;5033052;27;102716;-67
2023/01/24 10:33:35;;;;;;;24.13;16.83;;;;;;;0.93;100.00;97784.03;5029558;27;102653;-67
2023/01/24 10:36:09;;;;;;;25.57;16.20;;;;;;;1.00;100.00;97782.44;5027521;28;104913;-67
2023/01/24 10:38:36;;;;;;;27.97;18.07;;;;;;;1.16;100.00;97779.09;5027942;28;101900;-67
2023/01/24 10:41:16;;;;;;;23.33;16.50;;;;;;;1.20;100.00;97775.16;5027954;28;105140;-67
2023/01/24 10:43:47;;;;;;;24.90;16.13;;;;;;;1.31;100.00;97777.50;5027321;28;105438;-67
2023/01/24 10:46:31;;;;;;;23.57;16.93;;;;;;;1.50;100.00;97782.44;5027629;28;102010;-67
2023/01/24 10:49:01;;;;;;;23.77;16.47;;;;;;;1.58;100.00;97772.00;5027910;28;105659;-67
2023/01/24 10:51:28;;;;;;;22.87;16.50;;;;;;;1.60;100.00;97775.28;5027411;28;105607;-67
2023/01/24 10:54:02;;;;;;;21.67;16.70;;;;;;;1.55;100.00;97770.53;5031073;28;101872;-67
2023/01/24 10:56:29;;;;;;;24.30;17.43;;;;;;;1.50;100.00;97774.59;5027207;28;105339;-67
2023/01/24 10:58:57;;;;;;;21.60;15.30;;;;;;;1.60;100.00;97770.84;5027515;28;101923;-67
2023/01/24 11:01:34;;;;;;;24.10;16.33;;;;;;;1.74;100.00;97772.84;5029044;27;102302;-67
2023/01/24 11:04:14;;;;;;;21.97;16.90;;;;;;;1.76;100.00;97767.44;5026692;28;106163;-67
2023/01/24 11:06:41;;;;;;;23.40;16.80;;;;;;;1.83;100.00;97755.31;5029261;27;101874;-67
2023/01/24 11:09:12;;;;;;;27.40;18.03;;;;;;;1.86;100.00;97762.84;5027468;28;104930;-67
2023/01/24 11:11:45;;;;;;;24.17;17.27;;;;;;;1.70;100.00;97760.22;5027075;28;103790;-67
2023/01/24 11:14:16;;;;;;;25.70;18.10;;;;;;;1.59;100.00;97755.28;5032346;27;102165;-67
2023/01/24 11:16:47;;;;;;;24.57;17.73;;;;;;;1.76;100.00;97751.69;5026882;28;105891;-67
2023/01/24 11:19:28;;;;;;;23.17;17.20;;;;;;;1.73;100.00;97752.00;5026843;28;102000;-68
2023/01/24 11:21:57;;;;;;;22.87;16.67;;;;;;;1.62;100.00;97754.94;5028898;27;102832;-67
2023/01/24 11:24:25;;;;;;;23.40;17.07;;;;;;;1.37;100.00;97755.91;5026686;28;105799;-67
2023/01/24 11:26:55;;;;;;;26.03;17.93;;;;;;;1.26;100.00;97748.34;5027019;28;101909;-67
2023/01/24 11:29:23;;;;;;;23.70;17.70;;;;;;;1.42;100.00;97745.75;5027408;28;105257;-67
2023/01/24 11:31:54;;;;;;;25.37;18.00;;;;;;;1.53;100.00;97746.25;5029806;27;105518;-67
2023/01/24 11:34:44;;;;;;;24.77;18.67;;;;;;;1.68;100.00;97749.88;5032452;28;101857;-67
2023/01/24 11:37:40;;;;;;;25.17;18.20;;;;;;;1.66;100.00;97744.00;5033686;28;105180;-67
2023/01/24 11:40:28;;;;;;;27.23;19.87;;;;;;;1.47;100.00;97740.81;5030287;28;101823;-67
2023/01/24 11:43:09;;;;;;;24.17;18.97;;;;;;;1.47;100.00;97746.06;5032342;27;102273;-67
2023/01/24 11:45:53;;;;;;;25.83;19.80;;;;;;;1.43;100.00;97748.19;5031372;27;103081;-67
2023/01/24 11:48:26;;;;;;;26.50;19.50;;;;;;;1.53;100.00;97756.75;5030734;28;101885;-67
2023/01/24 11:51:04;;;;;;;25.90;19.43;;;;;;;1.61;100.00;97753.31;5032142;27;102968;-67
2023/01/24 11:53:58;;;;;;;26.77;19.97;;;;;;;1.75;100.00;97752.69;5029755;28;103833;-68
2023/01/24 11:56:35;;;;;;;27.60;19.47;;;;;;;1.68;100.00;97749.06;5031621;27;101877;-67
2023/01/24 11:59:33;;;;;;;23.93;18.30;;;;;;;1.76;100.00;97751.69;5030384;28;105180;-68